createdAt,value
2022-12-02T00:01:24.479Z,47.40
2022-12-02T00:03:51.823Z,43.83
2022-12-02T00:06:26.688Z,43.60
2022-12-02T00:08:55.368Z,41.25
2022-12-02T00:11:30.087Z,45.03
2022-12-02T00:14:01.303Z,47.80
2022-12-02T00:16:28.640Z,46.17
2022-12-02T00:18:57.039Z,48.17
2022-12-02T00:21:25.131Z,52.00
2022-12-02T00:23:52.451Z,45.80
2022-12-02T00:26:19.773Z,55.95
2022-12-02T00:28:47.146Z,48.08
2022-12-02T00:31:14.654Z,47.63
2022-12-02T00:33:43.456Z,50.88
2022-12-02T00:36:11.002Z,44.90
2022-12-02T00:38:38.253Z,49.53
2022-12-02T00:41:05.788Z,46.55
2022-12-02T00:43:51.630Z,48.10
2022-12-02T00:46:35.285Z,51.28
2022-12-02T00:49:05.012Z,48.65
2022-12-02T00:51:32.499Z,50.22
2022-12-02T00:53:59.760Z,47.40
2022-12-02T00:56:26.967Z,48.40
2022-12-02T00:58:55.761Z,47.75
2022-12-02T01:01:23.355Z,46.42
2022-12-02T01:03:50.637Z,46.70
2022-12-02T01:06:17.984Z,44.78
2022-12-02T01:08:45.416Z,45.80
2022-12-02T01:11:13.030Z,47.47
2022-12-02T01:13:40.513Z,48.88
2022-12-02T01:16:07.991Z,46.33
2022-12-02T01:18:35.878Z,43.35
2022-12-02T01:21:03.233Z,50.45
2022-12-02T01:23:30.486Z,51.63
2022-12-02T01:25:57.929Z,50.20
2022-12-02T01:28:25.354Z,56.67
2022-12-02T01:30:52.828Z,51.17
2022-12-02T01:33:20.190Z,47.10
2022-12-02T01:35:47.538Z,47.22
2022-12-02T01:38:15.065Z,49.40
2022-12-02T01:40:42.996Z,49.80
2022-12-02T01:43:10.372Z,49.33
2022-12-02T01:45:37.955Z,46.92
2022-12-02T01:48:05.796Z,48.53
2022-12-02T01:50:33.718Z,48.85
2022-12-02T01:53:01.175Z,60.78
2022-12-02T01:55:29.164Z,48.72
2022-12-02T01:57:57.753Z,53.45
2022-12-02T02:00:25.650Z,48.42
2022-12-02T02:02:52.991Z,50.08
2022-12-02T02:05:22.430Z,52.58
2022-12-02T02:07:51.236Z,48.00
2022-12-02T02:10:18.906Z,48.13
2022-12-02T02:12:46.895Z,49.42
2022-12-02T02:15:15.565Z,52.65
2022-12-02T02:17:43.142Z,50.03
2022-12-02T02:20:11.995Z,48.03
2022-12-02T02:22:39.326Z,52.97
2022-12-02T02:25:10.422Z,51.08
2022-12-02T02:27:37.816Z,53.53
2022-12-02T02:30:05.931Z,55.20
2022-12-02T02:32:33.246Z,51.58
2022-12-02T02:35:00.480Z,50.38
2022-12-02T02:37:28.067Z,54.35
2022-12-02T02:39:55.365Z,54.28
2022-12-02T02:42:22.675Z,56.38
2022-12-02T02:44:50.218Z,57.95
2022-12-02T02:47:17.648Z,58.58
2022-12-02T02:49:44.956Z,52.67
2022-12-02T02:52:12.573Z,58.15
2022-12-02T02:54:40.037Z,56.78
2022-12-02T02:57:09.617Z,53.92
2022-12-02T02:59:38.302Z,60.28
2022-12-02T03:02:09.128Z,59.88
2022-12-02T03:04:36.603Z,62.97
2022-12-02T03:07:03.991Z,61.08
2022-12-02T03:09:31.316Z,60.92
2022-12-02T03:11:58.834Z,58.55
2022-12-02T03:14:26.666Z,62.03
2022-12-02T03:16:54.446Z,61.65
2022-12-02T03:19:21.895Z,57.00
2022-12-02T03:21:49.198Z,53.95
2022-12-02T03:24:16.584Z,50.47
2022-12-02T03:26:44.009Z,51.67
2022-12-02T03:29:12.324Z,53.60
2022-12-02T03:31:39.728Z,52.97
2022-12-02T03:34:08.091Z,52.22
2022-12-02T03:36:36.107Z,53.22
2022-12-02T03:39:04.061Z,50.30
2022-12-02T03:41:31.335Z,52.42
2022-12-02T03:43:59.089Z,53.00
2022-12-02T03:46:26.867Z,53.13
2022-12-02T03:48:54.441Z,46.97
2022-12-02T03:51:21.680Z,50.33
2022-12-02T03:53:48.945Z,57.00
2022-12-02T03:56:16.341Z,52.65
2022-12-02T03:58:48.065Z,50.00
2022-12-02T04:01:16.053Z,51.33
2022-12-02T04:03:43.635Z,57.13
2022-12-02T04:06:11.098Z,82.03
2022-12-02T04:08:38.406Z,51.40
2022-12-02T04:11:06.424Z,47.65
2022-12-02T04:13:33.737Z,51.03
2022-12-02T04:16:00.990Z,52.25
2022-12-02T04:18:28.330Z,51.55
2022-12-02T04:20:55.566Z,49.88
2022-12-02T04:23:22.795Z,53.30
2022-12-02T04:25:50.076Z,47.45
2022-12-02T04:28:17.293Z,49.80
2022-12-02T04:30:44.595Z,49.65
2022-12-02T04:33:11.837Z,47.17
2022-12-02T04:35:39.132Z,43.53
2022-12-02T04:38:11.715Z,48.45
2022-12-02T04:40:39.782Z,52.17
2022-12-02T04:43:07.352Z,51.35
2022-12-02T04:45:34.518Z,48.67
2022-12-02T04:48:01.820Z,46.65
2022-12-02T04:50:29.174Z,47.58
2022-12-02T04:52:56.388Z,51.45
2022-12-02T04:55:23.662Z,46.03
2022-12-02T04:57:50.867Z,51.60
2022-12-02T05:00:18.163Z,51.75
2022-12-02T05:02:45.441Z,51.53
2022-12-02T05:05:13.017Z,52.63
2022-12-02T05:07:40.361Z,49.25
2022-12-02T05:10:08.330Z,52.75
2022-12-02T05:12:35.684Z,52.65
2022-12-02T05:15:03.112Z,50.97
2022-12-02T05:17:31.085Z,58.22
2022-12-02T05:19:58.349Z,61.10
2022-12-02T05:22:25.554Z,57.13
2022-12-02T05:24:53.081Z,51.13
2022-12-02T05:27:20.506Z,53.85
2022-12-02T05:29:47.718Z,52.38
2022-12-02T05:32:14.932Z,59.50
2022-12-02T05:34:42.285Z,54.00
2022-12-02T05:37:09.562Z,52.40
2022-12-02T05:39:36.773Z,54.88
2022-12-02T05:42:07.351Z,60.33
2022-12-02T05:44:39.357Z,51.97
2022-12-02T05:47:11.170Z,54.80
2022-12-02T05:49:38.840Z,48.97
2022-12-02T05:52:38.729Z,53.88
2022-12-02T05:55:13.503Z,47.72
2022-12-02T05:57:40.765Z,46.60
2022-12-02T06:00:21.384Z,43.83
2022-12-02T06:02:50.427Z,42.75
2022-12-02T06:05:28.690Z,60.63
2022-12-02T06:07:57.605Z,64.35
2022-12-02T06:10:26.849Z,43.05
2022-12-02T06:12:55.044Z,40.38
2022-12-02T06:15:22.692Z,43.58
2022-12-02T06:17:50.257Z,36.83
2022-12-02T06:20:26.934Z,40.63
2022-12-02T06:22:54.137Z,36.53
2022-12-02T06:25:26.104Z,39.83
2022-12-02T06:27:58.249Z,41.92
2022-12-02T06:30:27.795Z,39.70
2022-12-02T06:32:57.097Z,39.75
2022-12-02T06:35:24.308Z,42.03
2022-12-02T06:37:58.429Z,42.22
2022-12-02T06:40:29.340Z,42.03
2022-12-02T06:43:01.441Z,37.70
2022-12-02T06:45:30.991Z,41.10
2022-12-02T06:48:03.286Z,41.72
2022-12-02T06:50:42.410Z,44.63
2022-12-02T06:53:10.295Z,46.10
2022-12-02T06:55:38.012Z,39.67
2022-12-02T06:58:26.182Z,44.17
2022-12-02T07:00:53.722Z,39.03
2022-12-02T07:03:29.811Z,34.53
2022-12-02T07:06:00.036Z,34.33
2022-12-02T07:08:27.161Z,42.10
2022-12-02T07:10:54.292Z,45.85
2022-12-02T07:13:21.840Z,45.40
2022-12-02T07:15:48.954Z,44.60
2022-12-02T07:18:17.697Z,45.08
2022-12-02T07:20:45.753Z,45.42
2022-12-02T07:23:27.595Z,42.35
2022-12-02T07:26:00.614Z,38.08
2022-12-02T07:28:35.544Z,29.80
2022-12-02T07:31:04.175Z,35.80
2022-12-02T07:33:31.398Z,33.85
2022-12-02T07:35:58.559Z,28.42
2022-12-02T07:38:57.143Z,56.83
2022-12-02T07:41:13.907Z,35.45
2022-12-02T07:43:41.184Z,30.45
2022-12-02T07:46:08.562Z,33.65
2022-12-02T07:48:35.811Z,36.85
2022-12-02T07:51:02.950Z,33.75
2022-12-02T07:53:30.188Z,30.88
2022-12-02T07:55:58.512Z,24.73
2022-12-02T07:58:42.033Z,43.88
2022-12-02T08:01:18.862Z,119.45
2022-12-02T08:03:46.778Z,48.10
2022-12-02T08:06:14.037Z,45.97
2022-12-02T08:08:41.238Z,13.50
2022-12-02T08:11:08.361Z,11.68
2022-12-02T08:13:35.550Z,14.38
2022-12-02T08:16:02.648Z,13.77
2022-12-02T08:18:29.830Z,14.68
2022-12-02T08:20:57.012Z,12.50
2022-12-02T08:23:24.181Z,12.45
2022-12-02T08:25:51.322Z,13.77
2022-12-02T08:28:18.511Z,13.85
2022-12-02T08:30:45.698Z,14.93
2022-12-02T08:33:13.076Z,14.70
2022-12-02T08:35:40.346Z,35.75
2022-12-02T08:38:07.964Z,19.75
2022-12-02T08:40:35.435Z,13.10
2022-12-02T08:43:03.205Z,15.18
2022-12-02T08:45:30.421Z,13.35
2022-12-02T08:47:57.611Z,12.63
2022-12-02T08:50:25.165Z,14.38
2022-12-02T08:52:57.919Z,14.77
2022-12-02T08:55:25.629Z,11.40
2022-12-02T08:57:52.776Z,11.88
2022-12-02T09:00:20.323Z,13.05
2022-12-02T09:02:47.562Z,14.80
2022-12-02T09:05:14.897Z,13.05
2022-12-02T09:07:42.150Z,11.57
2022-12-02T09:10:10.464Z,13.45
2022-12-02T09:12:37.627Z,15.40
2022-12-02T09:15:05.348Z,16.67
2022-12-02T09:17:32.525Z,13.18
2022-12-02T09:20:00.056Z,12.85
2022-12-02T09:22:27.231Z,13.48
2022-12-02T09:24:54.641Z,15.90
2022-12-02T09:27:21.920Z,12.48
2022-12-02T09:29:49.096Z,18.63
2022-12-02T09:32:16.346Z,9.65
2022-12-02T09:34:43.457Z,12.68
2022-12-02T09:37:10.620Z,15.30
2022-12-02T09:39:39.252Z,19.10
2022-12-02T09:42:07.969Z,19.75
2022-12-02T09:44:35.396Z,11.38
2022-12-02T09:47:02.857Z,15.95
2022-12-02T09:49:31.074Z,14.93
2022-12-02T09:52:02.784Z,14.38
2022-12-02T09:54:31.029Z,15.70
2022-12-02T09:57:02.515Z,16.67
2022-12-02T09:59:31.378Z,11.00
2022-12-02T10:01:59.870Z,21.50
2022-12-02T10:04:27.246Z,10.57
2022-12-02T10:06:54.626Z,11.68
2022-12-02T10:09:28.175Z,7.72
2022-12-02T10:11:55.441Z,8.50
2022-12-02T10:14:22.913Z,9.50
2022-12-02T10:16:51.487Z,10.20
2022-12-02T10:19:19.466Z,14.38
2022-12-02T10:21:46.887Z,10.48
2022-12-02T10:24:14.289Z,9.95
2022-12-02T10:26:49.836Z,11.52
2022-12-02T10:29:28.665Z,11.75
2022-12-02T10:31:55.893Z,12.82
2022-12-02T10:34:23.474Z,14.15
2022-12-02T10:36:51.117Z,9.48
2022-12-02T10:39:24.393Z,10.80
2022-12-02T10:42:09.602Z,12.38
2022-12-02T10:44:38.519Z,8.93
2022-12-02T10:47:25.723Z,12.32
2022-12-02T10:49:55.605Z,15.88
2022-12-02T10:52:24.712Z,11.18
2022-12-02T10:54:53.831Z,10.93
2022-12-02T10:57:25.131Z,9.02
2022-12-02T10:59:53.216Z,8.40
2022-12-02T11:02:25.086Z,8.30
2022-12-02T11:04:53.102Z,9.82
2022-12-02T11:07:21.779Z,9.95
2022-12-02T11:09:52.460Z,8.20
2022-12-02T11:12:58.071Z,9.70
2022-12-02T11:15:36.054Z,9.20
2022-12-02T11:18:03.748Z,11.63
2022-12-02T11:20:32.873Z,9.23
2022-12-02T11:23:00.055Z,11.88
2022-12-02T11:25:48.025Z,13.52
2022-12-02T11:28:30.260Z,9.73
2022-12-02T11:31:13.921Z,11.88
2022-12-02T11:33:45.359Z,12.95
2022-12-02T11:36:16.549Z,13.50
2022-12-02T11:39:01.363Z,13.95
2022-12-02T11:41:29.917Z,13.00
2022-12-02T11:44:00.254Z,11.13
2022-12-02T11:46:39.354Z,9.70
2022-12-02T11:49:20.473Z,9.90
2022-12-02T11:51:47.722Z,9.43
2022-12-02T11:54:16.502Z,10.48
2022-12-02T11:56:45.074Z,9.00
2022-12-02T11:59:22.349Z,11.30
2022-12-02T12:01:49.771Z,14.05
2022-12-02T12:04:24.455Z,11.93
2022-12-02T12:06:56.011Z,10.70
2022-12-02T12:09:23.526Z,10.00
2022-12-02T12:12:06.815Z,9.75
2022-12-02T12:14:33.942Z,12.88
2022-12-02T12:17:17.063Z,14.18
2022-12-02T12:19:44.227Z,15.45
2022-12-02T12:22:28.153Z,14.25
2022-12-02T12:24:55.625Z,11.70
2022-12-02T12:27:38.629Z,12.50
2022-12-02T12:30:06.156Z,9.57
2022-12-02T12:32:33.418Z,10.65
2022-12-02T12:35:00.730Z,10.23
2022-12-02T12:37:27.927Z,10.77
2022-12-02T12:39:55.071Z,9.73
2022-12-02T12:42:22.258Z,12.20
2022-12-02T12:44:49.802Z,11.60
2022-12-02T12:47:22.164Z,11.38
2022-12-02T12:49:49.861Z,9.80
2022-12-02T12:52:17.107Z,9.88
2022-12-02T12:54:50.684Z,10.52
2022-12-02T12:57:18.256Z,8.80
2022-12-02T12:59:45.415Z,10.70
2022-12-02T13:02:12.823Z,10.25
2022-12-02T13:04:40.065Z,11.27
2022-12-02T13:07:07.224Z,12.25
2022-12-02T13:09:34.468Z,11.73
2022-12-02T13:12:01.623Z,18.20
2022-12-02T13:14:28.862Z,16.20
2022-12-02T13:16:56.065Z,13.75
2022-12-02T13:19:23.305Z,12.13
2022-12-02T13:21:50.641Z,11.60
2022-12-02T13:24:17.962Z,16.23
2022-12-02T13:26:45.162Z,16.13
2022-12-02T13:29:12.424Z,22.95
2022-12-02T13:31:39.737Z,23.40
2022-12-02T13:34:06.955Z,18.80
2022-12-02T13:36:34.063Z,26.63
2022-12-02T13:39:06.001Z,18.08
2022-12-02T13:41:33.850Z,21.55
2022-12-02T13:44:01.070Z,15.27
2022-12-02T13:46:28.307Z,17.05
2022-12-02T13:48:55.503Z,18.25
2022-12-02T13:51:22.735Z,18.98
2022-12-02T13:53:52.046Z,20.35
2022-12-02T13:56:22.916Z,18.25
2022-12-02T13:58:52.458Z,19.38
2022-12-02T14:01:19.812Z,25.48
2022-12-02T14:03:47.153Z,23.23
2022-12-02T14:06:14.502Z,23.58
2022-12-02T14:08:41.730Z,25.77
2022-12-02T14:11:09.072Z,26.60
2022-12-02T14:13:36.208Z,27.98
2022-12-02T14:16:03.531Z,28.23
2022-12-02T14:18:30.800Z,23.52
2022-12-02T14:20:59.038Z,24.98
2022-12-02T14:23:26.215Z,29.15
2022-12-02T14:25:53.419Z,38.72
2022-12-02T14:28:20.627Z,28.42
2022-12-02T14:30:47.840Z,28.50
2022-12-02T14:33:15.240Z,26.55
2022-12-02T14:35:43.457Z,23.65
2022-12-02T14:38:10.669Z,24.40
2022-12-02T14:40:38.016Z,20.90
2022-12-02T14:43:09.848Z,22.98
2022-12-02T14:45:40.038Z,20.55
2022-12-02T14:48:07.290Z,23.88
2022-12-02T14:50:34.550Z,24.35
2022-12-02T14:53:02.015Z,22.98
2022-12-02T14:55:29.408Z,23.83
2022-12-02T14:57:56.628Z,25.42
2022-12-02T15:00:23.891Z,26.42
2022-12-02T15:02:51.115Z,28.35
2022-12-02T15:05:20.501Z,35.63
2022-12-02T15:07:48.244Z,23.70
2022-12-02T15:10:15.889Z,34.38
2022-12-02T15:12:43.143Z,26.58
2022-12-02T15:15:36.985Z,26.10
2022-12-02T15:17:58.015Z,29.63
2022-12-02T15:20:26.568Z,32.05
2022-12-02T15:22:53.976Z,24.75
2022-12-02T15:25:21.191Z,25.73
2022-12-02T15:27:48.461Z,23.73
2022-12-02T15:30:15.861Z,25.08
2022-12-02T15:32:44.889Z,26.10
2022-12-02T15:35:12.317Z,27.23
2022-12-02T15:37:39.700Z,24.50
2022-12-02T15:40:07.910Z,22.67
2022-12-02T15:42:35.114Z,24.15
2022-12-02T15:45:02.405Z,25.50
2022-12-02T15:47:29.782Z,24.95
2022-12-02T15:49:56.960Z,24.55
2022-12-02T15:52:24.194Z,24.65
2022-12-02T15:54:51.690Z,25.10
2022-12-02T15:57:19.112Z,23.52
2022-12-02T15:59:46.315Z,29.77
2022-12-02T16:02:13.622Z,23.27
2022-12-02T16:04:40.862Z,28.77
2022-12-02T16:07:08.235Z,25.08
2022-12-02T16:09:35.430Z,25.13
2022-12-02T16:12:02.785Z,27.92
2022-12-02T16:14:29.968Z,24.40
2022-12-02T16:16:57.303Z,29.38
2022-12-02T16:19:24.520Z,24.88
2022-12-02T16:21:51.687Z,22.65
2022-12-02T16:24:18.903Z,24.70
2022-12-02T16:26:49.582Z,29.48
2022-12-02T16:29:19.488Z,13.07
2022-12-02T16:31:46.769Z,10.77
2022-12-02T16:34:14.009Z,15.15
2022-12-02T16:36:41.269Z,11.57
2022-12-02T16:39:09.635Z,11.32
2022-12-02T16:41:36.870Z,11.32
2022-12-02T16:44:04.136Z,12.05
2022-12-02T16:46:33.285Z,8.88
2022-12-02T16:49:00.667Z,14.15
2022-12-02T16:51:27.964Z,12.95
2022-12-02T16:53:55.141Z,11.70
2022-12-02T16:56:22.351Z,8.65
2022-12-02T16:58:49.481Z,9.93
2022-12-02T17:01:16.825Z,8.73
2022-12-02T17:03:47.979Z,9.00
2022-12-02T17:06:15.194Z,10.05
2022-12-02T17:08:42.390Z,8.50
2022-12-02T17:11:09.587Z,10.80
2022-12-02T17:13:36.834Z,12.18
2022-12-02T17:16:04.153Z,10.52
2022-12-02T17:18:31.444Z,13.63
2022-12-02T17:20:58.634Z,11.05
2022-12-02T17:23:25.819Z,10.75
2022-12-02T17:26:20.427Z,12.07
2022-12-02T17:29:09.161Z,11.45
2022-12-02T17:31:38.850Z,10.55
2022-12-02T17:34:06.114Z,16.58
2022-12-02T17:36:33.477Z,15.27
2022-12-02T17:39:00.729Z,14.88
2022-12-02T17:41:28.173Z,13.77
2022-12-02T17:43:55.425Z,18.45
2022-12-02T17:46:22.703Z,17.05
2022-12-02T17:48:50.010Z,25.20
2022-12-02T17:51:17.905Z,23.60
2022-12-02T17:53:45.312Z,28.17
2022-12-02T17:56:12.658Z,24.15
2022-12-02T17:58:39.849Z,23.15
2022-12-02T18:01:11.656Z,20.92
2022-12-02T18:03:39.824Z,20.20
2022-12-02T18:06:07.316Z,21.88
2022-12-02T18:08:34.512Z,22.60
2022-12-02T18:11:01.988Z,19.38
2022-12-02T18:13:30.035Z,22.48
2022-12-02T18:15:57.392Z,23.92
2022-12-02T18:18:24.638Z,23.13
2022-12-02T18:20:51.797Z,21.90
2022-12-02T18:23:22.501Z,23.40
2022-12-02T18:25:52.222Z,23.98
2022-12-02T18:28:19.381Z,24.10
2022-12-02T18:30:46.557Z,27.38
2022-12-02T18:33:13.822Z,23.92
2022-12-02T18:35:41.002Z,29.05
2022-12-02T18:38:08.270Z,22.77
2022-12-02T18:40:35.642Z,24.70
2022-12-02T18:43:02.866Z,21.65
2022-12-02T18:45:29.995Z,22.33
2022-12-02T18:47:57.186Z,27.17
2022-12-02T18:50:24.343Z,26.77
2022-12-02T18:52:51.554Z,28.60
2022-12-02T18:55:18.742Z,29.13
2022-12-02T18:57:46.023Z,31.02
2022-12-02T19:00:14.255Z,27.45
2022-12-02T19:02:41.604Z,29.35
2022-12-02T19:05:09.316Z,32.33
2022-12-02T19:07:36.973Z,29.42
2022-12-02T19:10:05.436Z,29.77
2022-12-02T19:12:32.721Z,36.05
2022-12-02T19:15:00.058Z,35.70
2022-12-02T19:17:27.289Z,38.20
2022-12-02T19:19:54.526Z,33.95
2022-12-02T19:22:21.948Z,42.45
2022-12-02T19:24:49.303Z,43.08
2022-12-02T19:27:49.471Z,38.10
2022-12-02T19:30:03.783Z,41.95
2022-12-02T19:32:30.962Z,38.00
2022-12-02T19:34:58.105Z,40.63
2022-12-02T19:37:25.394Z,40.33
2022-12-02T19:39:52.932Z,35.95
2022-12-02T19:42:20.361Z,35.35
2022-12-02T19:44:47.580Z,41.95
2022-12-02T19:47:14.767Z,42.28
2022-12-02T19:49:43.151Z,38.78
2022-12-02T19:52:10.447Z,37.92
2022-12-02T19:54:37.622Z,37.22
2022-12-02T19:57:05.030Z,39.90
2022-12-02T19:59:32.258Z,37.47
2022-12-02T20:01:59.522Z,35.15
2022-12-02T20:04:40.647Z,36.75
2022-12-02T20:07:08.448Z,36.42
2022-12-02T20:09:35.675Z,39.17
2022-12-02T20:12:02.962Z,39.08
2022-12-02T20:14:30.158Z,38.42
2022-12-02T20:16:57.330Z,41.03
2022-12-02T20:19:24.688Z,41.22
2022-12-02T20:21:51.841Z,38.53
2022-12-02T20:24:19.070Z,36.25
2022-12-02T20:26:46.345Z,36.25
2022-12-02T20:29:13.656Z,40.83
2022-12-02T20:31:40.888Z,41.67
2022-12-02T20:34:08.150Z,42.72
2022-12-02T20:36:35.348Z,39.10
2022-12-02T20:39:02.765Z,40.00
2022-12-02T20:41:29.983Z,36.75
2022-12-02T20:43:57.129Z,37.65
2022-12-02T20:46:24.790Z,42.97
2022-12-02T20:48:52.111Z,39.20
2022-12-02T20:51:19.312Z,41.65
2022-12-02T20:53:46.638Z,39.05
2022-12-02T20:56:13.809Z,36.25
2022-12-02T20:58:41.127Z,34.50
2022-12-02T21:01:12.464Z,37.47
2022-12-02T21:03:40.155Z,31.38
2022-12-02T21:06:07.586Z,33.40
2022-12-02T21:08:34.900Z,35.72
2022-12-02T21:11:02.229Z,31.52
2022-12-02T21:13:29.605Z,35.85
2022-12-02T21:15:56.946Z,34.15
2022-12-02T21:18:25.218Z,36.45
2022-12-02T21:20:52.668Z,36.60
2022-12-02T21:23:20.046Z,35.45
2022-12-02T21:25:47.263Z,36.85
2022-12-02T21:28:14.439Z,31.40
2022-12-02T21:30:42.460Z,30.23
2022-12-02T21:33:09.695Z,27.10
2022-12-02T21:35:36.948Z,29.45
2022-12-02T21:38:04.165Z,32.38
2022-12-02T21:40:31.331Z,25.00
2022-12-02T21:42:58.625Z,25.98
2022-12-02T21:45:26.542Z,26.35
2022-12-02T21:47:53.843Z,27.95
2022-12-02T21:50:20.997Z,25.77
2022-12-02T21:52:48.242Z,23.30
2022-12-02T21:55:15.490Z,30.77
2022-12-02T21:57:42.634Z,31.58
2022-12-02T22:00:10.187Z,25.48
2022-12-02T22:02:37.408Z,23.90
2022-12-02T22:05:04.652Z,24.33
2022-12-02T22:07:40.861Z,25.65
2022-12-02T22:10:21.580Z,23.55
2022-12-02T22:12:49.819Z,22.02
2022-12-02T22:15:18.281Z,24.02
2022-12-02T22:17:45.704Z,21.50
2022-12-02T22:20:14.155Z,23.95
2022-12-02T22:22:41.341Z,24.17
2022-12-02T22:25:08.938Z,25.08
2022-12-02T22:27:36.122Z,22.77
2022-12-02T22:30:03.300Z,21.38
2022-12-02T22:32:30.558Z,21.85
2022-12-02T22:34:57.729Z,20.45
2022-12-02T22:37:24.920Z,22.40
2022-12-02T22:39:52.082Z,20.27
2022-12-02T22:42:19.246Z,23.17
2022-12-02T22:44:46.422Z,22.35
2022-12-02T22:47:13.542Z,25.15
2022-12-02T22:49:40.696Z,23.60
2022-12-02T22:52:07.947Z,25.85
2022-12-02T22:54:35.269Z,23.42
2022-12-02T22:57:02.449Z,24.15
2022-12-02T22:59:29.595Z,25.13
2022-12-02T23:01:56.987Z,24.00
2022-12-02T23:04:24.227Z,24.08
2022-12-02T23:06:51.518Z,24.77
2022-12-02T23:09:18.701Z,24.17
2022-12-02T23:11:45.824Z,24.80
2022-12-02T23:14:13.031Z,26.90
2022-12-02T23:16:40.246Z,24.65
2022-12-02T23:19:07.424Z,28.23
2022-12-02T23:21:34.596Z,25.48
2022-12-02T23:24:01.742Z,29.00
2022-12-02T23:26:28.942Z,26.98
2022-12-02T23:28:56.091Z,25.25
2022-12-02T23:31:23.314Z,26.60
2022-12-02T23:33:50.577Z,31.13
2022-12-02T23:36:17.830Z,27.13
2022-12-02T23:38:45.725Z,28.88
2022-12-02T23:41:13.035Z,28.10
2022-12-02T23:43:40.215Z,27.63
2022-12-02T23:46:07.458Z,27.67
2022-12-02T23:48:34.751Z,33.03
2022-12-02T23:51:01.906Z,27.33
2022-12-02T23:53:29.072Z,28.60
2022-12-02T23:55:56.282Z,28.40
2022-12-02T23:58:23.419Z,31.80
